Time;durP1;ratioP1;P1;durP2;ratioP2;P2;SDS_P1;SDS_P2;PMS_P1;PMS_P2;Temp;Humidity;BMP_temperature;BMP_pressure;BME280_temperature;BME280_humidity;BME280_pressure;Samples;Min_cycle;Max_cycle;Signal;HPM_P1;HPM_P2
2023/07/15 00:00:52;;;;;;;8.00;4.72;;;18.90;99.90;;;;;;5011721;28;20053;-70
2023/07/15 00:03:18;;;;;;;7.72;4.90;;;18.90;99.90;;;;;;5043806;28;20041;-69
2023/07/15 00:05:45;;;;;;;7.43;4.88;;;18.90;99.90;;;;;;5003293;28;20100;-69
2023/07/15 00:08:10;;;;;;;10.57;5.38;;;19.00;99.90;;;;;;5011425;28;20111;-70
2023/07/15 00:10:39;;;;;;;6.85;4.63;;;19.10;99.90;;;;;;5028090;28;20041;-69
2023/07/15 00:13:16;;;;;;;8.27;4.97;;;19.10;99.90;;;;;;5024606;28;20048;-69
2023/07/15 00:15:43;;;;;;;9.85;4.85;;;19.20;99.90;;;;;;5013313;28;20468;-70
2023/07/15 00:18:09;;;;;;;7.28;4.90;;;19.20;99.90;;;;;;5010788;28;20079;-70
2023/07/15 00:20:36;;;;;;;8.98;5.22;;;19.20;99.90;;;;;;5027435;28;20076;-70
2023/07/15 00:23:03;;;;;;;9.20;4.43;;;19.20;99.90;;;;;;4995352;28;20034;-70
2023/07/15 00:25:31;;;;;;;7.70;4.38;;;19.20;99.90;;;;;;5027952;28;20136;-70
2023/07/15 00:27:56;;;;;;;7.78;4.28;;;19.20;99.90;;;;;;4992459;28;20083;-70
2023/07/15 00:30:22;;;;;;;7.07;4.60;;;19.20;99.90;;;;;;5009532;28;20081;-70
2023/07/15 00:32:50;;;;;;;9.38;4.95;;;19.20;99.90;;;;;;5010928;28;20660;-70
2023/07/15 00:35:18;;;;;;;6.97;5.00;;;19.20;99.90;;;;;;5008913;28;20501;-69
2023/07/15 00:37:44;;;;;;;7.60;4.18;;;19.30;99.90;;;;;;5026616;28;20060;-70
2023/07/15 00:40:10;;;;;;;8.25;4.07;;;19.30;99.90;;;;;;5025662;28;20120;-70
2023/07/15 00:42:52;;;;;;;6.03;4.18;;;19.30;99.90;;;;;;5007937;28;20048;-71
2023/07/15 00:45:18;;;;;;;7.22;5.05;;;19.30;99.90;;;;;;4992998;28;20051;-69
2023/07/15 00:48:10;;;;;;;7.38;4.35;;;19.30;99.90;;;;;;5004624;28;20404;-69
2023/07/15 00:50:39;;;;;;;7.28;4.55;;;19.30;99.90;;;;;;5024106;28;20430;-69
2023/07/15 00:53:04;;;;;;;7.80;4.97;;;19.30;99.90;;;;;;5022987;28;20162;-69
2023/07/15 00:55:31;;;;;;;13.35;4.88;;;19.30;99.90;;;;;;5008554;28;20081;-69
2023/07/15 00:57:57;;;;;;;10.35;4.30;;;19.30;99.90;;;;;;5023275;28;20049;-69
2023/07/15 01:00:23;;;;;;;8.95;4.88;;;19.20;99.90;;;;;;5008389;28;20079;-70
2023/07/15 01:02:49;;;;;;;6.70;4.55;;;19.20;99.90;;;;;;5007494;28;20629;-69
2023/07/15 01:05:16;;;;;;;11.70;5.07;;;19.20;99.90;;;;;;4997927;28;20040;-71
2023/07/15 01:07:42;;;;;;;5.78;4.53;;;19.20;99.90;;;;;;5040917;28;20136;-70
2023/07/15 01:10:08;;;;;;;8.40;4.82;;;19.20;99.90;;;;;;5026706;28;20143;-70
2023/07/15 01:12:34;;;;;;;8.40;5.05;;;19.20;99.90;;;;;;5042143;28;20061;-70
2023/07/15 01:14:59;;;;;;;6.75;4.43;;;19.20;99.90;;;;;;5031397;28;20049;-70
2023/07/15 01:17:25;;;;;;;10.05;4.57;;;19.20;99.90;;;;;;5011527;28;20048;-70
2023/07/15 01:19:53;;;;;;;10.68;4.55;;;19.20;99.90;;;;;;5031354;28;20048;-70
2023/07/15 01:22:20;;;;;;;11.48;4.35;;;19.20;99.90;;;;;;5026977;28;20063;-70
2023/07/15 01:24:45;;;;;;;9.68;5.20;;;19.30;99.90;;;;;;5046235;28;20053;-70
2023/07/15 01:27:11;;;;;;;5.80;4.35;;;19.30;99.90;;;;;;5030052;28;20478;-69
2023/07/15 01:29:37;;;;;;;7.22;4.60;;;19.30;99.90;;;;;;5030101;28;20496;-70
2023/07/15 01:32:03;;;;;;;8.48;4.10;;;19.30;99.90;;;;;;5042587;28;20094;-69
2023/07/15 01:34:30;;;;;;;8.30;4.18;;;19.30;99.90;;;;;;5031193;28;20048;-70
2023/07/15 01:36:57;;;;;;;8.15;3.60;;;19.40;99.90;;;;;;5027571;28;20136;-70
2023/07/15 01:39:23;;;;;;;7.57;4.38;;;19.40;99.90;;;;;;5029354;28;20037;-70
2023/07/15 01:41:49;;;;;;;7.28;4.38;;;19.50;99.90;;;;;;5027078;28;20087;-69
2023/07/15 01:44:15;;;;;;;5.65;3.67;;;19.40;99.90;;;;;;5028927;28;20064;-70
2023/07/15 01:46:41;;;;;;;7.13;3.88;;;19.50;99.90;;;;;;5045519;28;20053;-70
2023/07/15 01:49:07;;;;;;;9.70;4.60;;;19.50;99.90;;;;;;5045456;28;20298;-70
2023/07/15 01:51:35;;;;;;;6.20;3.97;;;19.50;99.90;;;;;;5038318;28;20095;-70
2023/07/15 01:54:01;;;;;;;7.80;3.65;;;19.50;99.90;;;;;;5027496;28;20272;-70
2023/07/15 01:56:26;;;;;;;7.57;3.60;;;19.50;99.90;;;;;;5047642;28;20041;-70
2023/07/15 01:58:52;;;;;;;6.82;3.50;;;19.50;99.90;;;;;;5027628;28;20217;-69
2023/07/15 02:01:18;;;;;;;7.88;3.50;;;19.60;99.90;;;;;;5024931;28;20037;-70
2023/07/15 02:03:45;;;;;;;7.28;3.40;;;19.70;99.90;;;;;;5010724;28;20036;-70
2023/07/15 02:06:13;;;;;;;8.25;3.70;;;19.80;99.90;;;;;;5044905;28;20049;-70
2023/07/15 02:08:41;;;;;;;6.40;2.97;;;19.90;99.90;;;;;;5042919;28;20092;-70
2023/07/15 02:11:07;;;;;;;10.80;3.50;;;20.00;99.90;;;;;;5046353;28;20175;-70
2023/07/15 02:13:33;;;;;;;9.07;3.60;;;20.00;99.90;;;;;;5026363;28;20044;-70
2023/07/15 02:15:58;;;;;;;8.05;2.75;;;20.10;99.90;;;;;;5043915;28;20037;-70
2023/07/15 02:18:25;;;;;;;10.93;3.22;;;20.10;99.90;;;;;;5037187;28;20037;-70
2023/07/15 02:20:51;;;;;;;7.03;3.55;;;20.10;99.90;;;;;;5047215;28;20496;-70
2023/07/15 02:23:17;;;;;;;7.60;3.63;;;20.10;99.90;;;;;;5024862;28;20041;-70
2023/07/15 02:25:43;;;;;;;7.28;3.40;;;20.10;99.90;;;;;;5028992;28;20052;-70
2023/07/15 02:28:08;;;;;;;5.10;3.50;;;20.10;99.90;;;;;;5040908;28;20045;-70
2023/07/15 02:30:34;;;;;;;6.10;3.25;;;20.00;99.90;;;;;;5028057;28;20053;-70
2023/07/15 02:33:01;;;;;;;9.32;3.60;;;20.00;99.90;;;;;;5031747;28;20041;-70
2023/07/15 02:35:27;;;;;;;8.25;3.40;;;20.00;99.90;;;;;;5047667;28;20056;-70
2023/07/15 02:37:55;;;;;;;6.95;3.40;;;20.00;99.90;;;;;;5028564;28;20041;-70
2023/07/15 02:40:21;;;;;;;6.45;3.42;;;19.90;99.90;;;;;;5040704;28;20040;-70
2023/07/15 02:42:46;;;;;;;6.38;3.63;;;19.90;99.90;;;;;;5044743;28;20094;-69
2023/07/15 02:45:15;;;;;;;5.72;3.40;;;19.90;99.90;;;;;;5028118;28;20603;-70
2023/07/15 02:47:41;;;;;;;7.13;3.88;;;19.90;99.90;;;;;;5045361;28;20041;-70
2023/07/15 02:50:08;;;;;;;10.75;3.92;;;19.80;99.90;;;;;;5043720;28;20041;-70
2023/07/15 02:52:35;;;;;;;7.93;3.40;;;19.80;99.90;;;;;;5040132;28;20555;-70
2023/07/15 02:55:06;;;;;;;6.40;3.80;;;19.70;99.90;;;;;;5025005;28;20086;-70
2023/07/15 02:57:33;;;;;;;6.85;3.83;;;19.70;99.90;;;;;;5040215;28;20041;-70
2023/07/15 02:59:59;;;;;;;7.97;3.92;;;19.60;99.90;;;;;;5025052;28;20044;-70
2023/07/15 03:02:25;;;;;;;7.10;4.13;;;19.50;99.90;;;;;;5023835;28;20152;-70
2023/07/15 03:04:51;;;;;;;7.85;3.90;;;19.50;99.90;;;;;;5029895;28;20114;-70
2023/07/15 03:07:17;;;;;;;7.22;3.40;;;19.40;99.90;;;;;;5038726;28;20037;-69
2023/07/15 03:09:44;;;;;;;9.43;3.72;;;19.40;99.90;;;;;;5046817;28;20045;-70
2023/07/15 03:12:11;;;;;;;6.32;3.70;;;19.30;99.90;;;;;;5046268;28;20052;-70
2023/07/15 03:14:37;;;;;;;8.82;3.58;;;19.20;99.90;;;;;;5028300;28;20044;-70
2023/07/15 03:17:03;;;;;;;9.05;3.95;;;19.20;99.90;;;;;;5042841;28;20557;-69
2023/07/15 03:19:31;;;;;;;7.03;3.75;;;19.10;99.90;;;;;;5028541;28;20053;-69
2023/07/15 03:21:59;;;;;;;7.57;4.07;;;19.00;99.90;;;;;;5045196;28;20062;-69
2023/07/15 03:24:25;;;;;;;7.00;3.45;;;19.00;99.90;;;;;;5039607;28;20127;-70
2023/07/15 03:26:54;;;;;;;7.15;4.07;;;18.90;99.90;;;;;;5027698;28;20630;-70
2023/07/15 03:29:22;;;;;;;8.25;3.65;;;18.90;99.90;;;;;;5025474;28;20399;-70
2023/07/15 03:31:48;;;;;;;6.88;3.90;;;18.80;99.90;;;;;;5025700;28;20064;-71
2023/07/15 03:34:14;;;;;;;7.18;3.83;;;18.80;99.90;;;;;;5043616;28;20472;-71
2023/07/15 03:36:39;;;;;;;6.72;3.75;;;18.70;99.90;;;;;;5043796;28;20446;-71
2023/07/15 03:39:05;;;;;;;11.40;4.57;;;18.80;99.90;;;;;;5008125;28;20593;-71
2023/07/15 03:41:32;;;;;;;6.82;4.38;;;18.70;99.90;;;;;;5015547;28;20041;-71
2023/07/15 03:43:58;;;;;;;12.80;4.70;;;18.80;99.90;;;;;;5030368;28;20053;-70
2023/07/15 03:46:23;;;;;;;5.97;3.78;;;18.80;99.90;;;;;;5045160;28;20044;-70
2023/07/15 03:48:49;;;;;;;9.95;4.63;;;18.80;99.90;;;;;;5045415;28;20168;-70
2023/07/15 03:51:15;;;;;;;8.45;4.28;;;18.70;99.90;;;;;;5028400;28;20088;-70
2023/07/15 03:53:40;;;;;;;9.00;4.15;;;18.80;99.90;;;;;;5050117;28;20493;-70
2023/07/15 03:56:06;;;;;;;5.82;4.05;;;18.70;99.90;;;;;;5031335;28;20073;-71
2023/07/15 03:58:32;;;;;;;5.65;4.03;;;18.70;99.90;;;;;;5030768;28;20090;-70
2023/07/15 04:00:57;;;;;;;7.28;4.30;;;18.70;99.90;;;;;;5025125;28;20045;-70
2023/07/15 04:03:23;;;;;;;9.70;4.15;;;18.70;99.90;;;;;;5045965;28;20120;-70
2023/07/15 04:05:49;;;;;;;8.32;4.57;;;18.70;99.90;;;;;;5046197;28;20048;-70
2023/07/15 04:08:14;;;;;;;9.25;4.10;;;18.70;99.90;;;;;;5044268;28;20045;-71
2023/07/15 04:10:40;;;;;;;7.50;4.32;;;18.80;99.90;;;;;;5043842;28;20048;-71
2023/07/15 04:13:06;;;;;;;7.00;4.00;;;19.00;99.90;;;;;;5028078;28;20069;-70
2023/07/15 04:15:31;;;;;;;10.63;4.63;;;19.20;99.90;;;;;;5028796;28;20068;-70
2023/07/15 04:17:57;;;;;;;8.52;4.70;;;19.50;99.90;;;;;;5030158;28;20052;-70
2023/07/15 04:20:23;;;;;;;9.07;4.60;;;19.70;99.90;;;;;;5033985;28;20041;-70
2023/07/15 04:22:48;;;;;;;7.22;4.60;;;20.00;99.90;;;;;;5029212;28;20102;-70
2023/07/15 04:25:14;;;;;;;9.40;5.45;;;20.10;99.90;;;;;;5014246;28;20073;-70
2023/07/15 04:27:41;;;;;;;10.98;4.32;;;20.30;99.90;;;;;;5046745;28;20282;-70
2023/07/15 04:30:11;;;;;;;10.02;5.18;;;20.20;99.90;;;;;;5029643;28;20574;-70
2023/07/15 04:32:36;;;;;;;8.32;5.53;;;20.00;99.90;;;;;;5027626;28;20048;-71
2023/07/15 04:35:02;;;;;;;7.68;4.18;;;19.80;99.90;;;;;;5045664;28;20041;-70
2023/07/15 04:37:30;;;;;;;10.02;4.55;;;19.70;99.90;;;;;;5024886;28;20127;-70
2023/07/15 04:39:56;;;;;;;8.73;4.75;;;19.60;99.90;;;;;;5042155;28;20140;-70
2023/07/15 04:42:22;;;;;;;8.77;4.03;;;19.60;99.90;;;;;;5042143;28;20559;-71
2023/07/15 04:44:48;;;;;;;7.38;4.05;;;19.50;99.90;;;;;;5048517;28;20107;-71
2023/07/15 04:47:13;;;;;;;7.35;3.85;;;19.50;99.90;;;;;;5045435;28;20040;-70
2023/07/15 04:49:39;;;;;;;7.15;4.00;;;19.50;99.90;;;;;;5030721;28;20087;-70
2023/07/15 04:52:05;;;;;;;9.63;4.07;;;19.50;99.90;;;;;;5031398;28;20041;-70
2023/07/15 04:54:31;;;;;;;7.38;3.67;;;19.50;99.90;;;;;;5046233;28;20044;-70
2023/07/15 04:56:57;;;;;;;8.13;4.30;;;19.60;99.90;;;;;;5048606;28;20053;-71
2023/07/15 04:59:22;;;;;;;8.52;4.53;;;19.60;99.90;;;;;;5044031;28;20041;-71
2023/07/15 05:01:48;;;;;;;8.35;4.13;;;19.70;99.90;;;;;;5039726;28;20065;-70
2023/07/15 05:04:14;;;;;;;14.30;4.63;;;19.80;99.90;;;;;;5033676;28;20413;-70
2023/07/15 05:06:40;;;;;;;9.00;4.10;;;19.90;99.90;;;;;;5031416;28;20057;-71
2023/07/15 05:09:06;;;;;;;8.60;3.78;;;20.00;99.90;;;;;;5028499;28;20068;-71
2023/07/15 05:11:32;;;;;;;7.50;3.92;;;20.10;99.90;;;;;;4994916;28;20057;-70
2023/07/15 05:13:58;;;;;;;8.43;3.47;;;20.30;99.90;;;;;;5009101;28;20508;-71
2023/07/15 05:16:24;;;;;;;6.80;3.85;;;20.40;99.90;;;;;;5008458;28;20103;-70
2023/07/15 05:18:49;;;;;;;6.45;4.38;;;20.50;99.90;;;;;;5011011;28;20447;-71
2023/07/15 05:21:16;;;;;;;8.45;4.88;;;20.60;99.90;;;;;;5014859;28;20045;-71
2023/07/15 05:23:42;;;;;;;7.45;4.20;;;20.70;99.90;;;;;;4999943;28;20769;-71
2023/07/15 05:26:07;;;;;;;6.72;4.57;;;20.80;99.90;;;;;;5010388;28;20037;-71
2023/07/15 05:28:33;;;;;;;7.25;4.38;;;20.90;99.90;;;;;;5035713;28;20045;-71
2023/07/15 05:31:00;;;;;;;9.50;4.00;;;21.00;99.90;;;;;;5024869;28;20049;-71
2023/07/15 05:33:26;;;;;;;8.05;3.97;;;21.10;99.90;;;;;;5018887;28;20071;-70
2023/07/15 05:35:52;;;;;;;8.23;3.95;;;21.10;99.90;;;;;;5013077;28;20073;-70
2023/07/15 05:38:25;;;;;;;6.25;3.63;;;21.10;99.90;;;;;;5014876;28;20045;-72
2023/07/15 05:40:54;;;;;;;7.72;3.60;;;21.20;99.90;;;;;;5008814;28;20420;-70
2023/07/15 05:43:20;;;;;;;6.68;3.45;;;21.30;99.90;;;;;;5005787;28;20072;-71
2023/07/15 05:45:46;;;;;;;4.30;3.17;;;21.40;99.90;;;;;;5007908;28;20388;-70
2023/07/15 05:48:12;;;;;;;7.65;3.92;;;21.50;99.90;;;;;;5001076;28;20045;-70
2023/07/15 05:50:38;;;;;;;4.88;3.25;;;21.70;99.90;;;;;;5030787;28;20052;-71
2023/07/15 05:53:05;;;;;;;6.07;3.88;;;21.70;99.90;;;;;;5013552;28;20045;-70
2023/07/15 05:55:33;;;;;;;9.77;4.95;;;21.70;99.90;;;;;;5009830;28;20057;-70
2023/07/15 05:57:59;;;;;;;5.18;3.40;;;21.90;99.90;;;;;;5028943;28;20072;-71
2023/07/15 06:00:24;;;;;;;5.45;3.47;;;22.00;99.90;;;;;;5028390;28;20064;-70
2023/07/15 06:02:50;;;;;;;6.28;3.00;;;22.00;99.90;;;;;;5008120;28;20132;-71
2023/07/15 06:05:16;;;;;;;8.43;2.95;;;22.00;99.90;;;;;;5007138;28;20215;-71
2023/07/15 06:07:42;;;;;;;6.13;3.40;;;22.10;99.90;;;;;;5004595;28;20049;-71
2023/07/15 06:10:08;;;;;;;6.90;3.20;;;22.20;99.90;;;;;;5025675;28;20073;-72
2023/07/15 06:12:33;;;;;;;9.00;3.28;;;22.40;99.90;;;;;;5001821;28;20040;-71
2023/07/15 06:14:59;;;;;;;3.90;2.60;;;22.70;99.90;;;;;;5005851;28;20041;-72
2023/07/15 06:17:25;;;;;;;5.63;3.15;;;22.70;99.90;;;;;;5018610;28;20045;-70
2023/07/15 06:19:50;;;;;;;6.35;2.55;;;22.90;99.90;;;;;;5019247;28;20120;-71
2023/07/15 06:22:16;;;;;;;7.57;2.33;;;22.80;99.90;;;;;;5007493;28;20500;-70
2023/07/15 06:24:42;;;;;;;5.30;2.63;;;22.90;99.90;;;;;;5009044;28;20408;-71
2023/07/15 06:27:08;;;;;;;4.93;2.45;;;23.00;99.90;;;;;;4990080;28;20553;-71
2023/07/15 06:29:34;;;;;;;5.90;2.10;;;22.90;99.90;;;;;;5010044;28;20251;-72
2023/07/15 06:32:00;;;;;;;5.20;2.20;;;22.90;99.90;;;;;;5001600;28;20052;-72
2023/07/15 06:34:25;;;;;;;5.05;1.98;;;23.00;99.90;;;;;;5022181;28;20399;-72
2023/07/15 06:36:52;;;;;;;5.65;2.08;;;23.00;99.90;;;;;;5010468;28;20049;-72
2023/07/15 06:39:18;;;;;;;3.47;1.75;;;22.90;99.90;;;;;;5025278;28;20048;-71
2023/07/15 06:41:44;;;;;;;5.53;1.65;;;22.70;99.90;;;;;;5019963;28;20100;-72
2023/07/15 06:44:09;;;;;;;3.60;2.03;;;22.60;99.90;;;;;;4991976;28;20560;-72
2023/07/15 06:46:35;;;;;;;3.60;1.90;;;22.50;99.90;;;;;;5005085;28;20050;-71
2023/07/15 06:49:01;;;;;;;5.18;1.70;;;22.50;99.90;;;;;;5008430;28;20076;-71
2023/07/15 06:51:27;;;;;;;4.78;2.38;;;22.40;99.90;;;;;;5001950;28;20378;-71
2023/07/15 06:53:52;;;;;;;5.22;1.77;;;22.40;99.90;;;;;;5021057;28;20034;-72
2023/07/15 06:56:18;;;;;;;4.65;1.80;;;22.40;99.90;;;;;;5002062;28;20072;-72
2023/07/15 06:58:44;;;;;;;6.68;1.98;;;22.40;99.90;;;;;;5024046;28;20094;-72
2023/07/15 07:01:09;;;;;;;5.03;2.15;;;22.40;99.90;;;;;;5019507;28;20061;-71
2023/07/15 07:03:35;;;;;;;4.45;1.85;;;22.30;99.90;;;;;;5005013;28;20065;-72
2023/07/15 07:06:01;;;;;;;5.15;1.90;;;22.30;99.90;;;;;;5031706;28;20041;-74
2023/07/15 07:08:27;;;;;;;5.13;1.90;;;22.40;99.90;;;;;;5025841;28;20287;-75
2023/07/15 07:10:53;;;;;;;4.53;2.13;;;22.40;99.90;;;;;;5025611;28;20120;-74
2023/07/15 07:13:19;;;;;;;6.78;1.90;;;22.40;99.90;;;;;;5012433;28;20048;-74
2023/07/15 07:15:47;;;;;;;4.53;2.15;;;22.50;99.90;;;;;;5043260;28;20033;-74
2023/07/15 07:18:12;;;;;;;4.47;1.67;;;22.50;99.90;;;;;;5024612;28;20037;-74
2023/07/15 07:20:41;;;;;;;3.53;1.75;;;22.60;99.90;;;;;;5044940;28;20050;-75
2023/07/15 07:23:07;;;;;;;4.53;1.85;;;22.60;99.90;;;;;;5021859;28;20688;-74
2023/07/15 07:25:33;;;;;;;7.07;2.40;;;22.60;99.90;;;;;;5030386;28;20054;-75
2023/07/15 07:27:59;;;;;;;5.78;2.58;;;22.60;99.90;;;;;;5046195;28;20513;-74
2023/07/15 07:30:24;;;;;;;4.43;1.92;;;22.60;99.90;;;;;;5027310;28;20049;-75
2023/07/15 07:32:50;;;;;;;4.95;2.13;;;22.70;99.90;;;;;;5023873;28;20500;-75
2023/07/15 07:35:17;;;;;;;3.72;1.58;;;22.70;99.90;;;;;;5026344;28;20072;-74
2023/07/15 07:37:43;;;;;;;3.78;1.70;;;22.70;99.90;;;;;;5029499;28;20059;-74
2023/07/15 07:40:09;;;;;;;4.43;1.60;;;22.80;99.90;;;;;;5026013;28;20496;-74
2023/07/15 07:42:35;;;;;;;2.60;1.25;;;22.90;99.90;;;;;;5030024;28;20087;-74
2023/07/15 07:45:01;;;;;;;2.53;1.17;;;22.90;99.90;;;;;;5026490;28;20515;-73
2023/07/15 07:47:26;;;;;;;3.30;0.90;;;22.90;99.90;;;;;;5028985;28;20086;-74
2023/07/15 07:49:52;;;;;;;3.85;1.30;;;23.00;99.90;;;;;;5029548;28;20044;-74
2023/07/15 07:52:18;;;;;;;3.22;1.38;;;23.10;99.90;;;;;;5042745;28;20048;-73
2023/07/15 07:54:44;;;;;;;2.20;1.10;;;23.30;99.90;;;;;;5044838;28;20049;-72
2023/07/15 07:57:14;;;;;;;5.43;1.60;;;23.30;99.90;;;;;;4994571;28;20033;-73
2023/07/15 07:59:39;;;;;;;4.60;1.33;;;23.40;99.90;;;;;;5027368;28;20716;-75
2023/07/15 08:02:05;;;;;;;2.83;1.10;;;23.30;99.90;;;;;;5026555;28;20065;-74
2023/07/15 08:04:31;;;;;;;5.85;1.38;;;23.30;99.90;;;;;;5044753;28;20063;-74
2023/07/15 08:06:56;;;;;;;4.85;1.40;;;23.30;99.90;;;;;;5039166;28;20132;-74
2023/07/15 08:09:22;;;;;;;5.20;1.50;;;23.40;99.90;;;;;;5036735;28;20048;-74
2023/07/15 08:11:48;;;;;;;4.78;1.40;;;23.50;99.90;;;;;;5020994;28;20041;-74
2023/07/15 08:14:13;;;;;;;3.50;1.60;;;23.40;99.90;;;;;;5022806;28;20041;-75
2023/07/15 08:16:39;;;;;;;4.53;1.40;;;23.40;99.90;;;;;;5041024;28;20454;-73
2023/07/15 08:19:06;;;;;;;5.20;1.75;;;23.60;99.90;;;;;;5023876;28;20220;-74
2023/07/15 08:21:32;;;;;;;4.18;1.40;;;23.70;99.90;;;;;;5027693;28;20074;-74
2023/07/15 08:23:58;;;;;;;7.00;1.90;;;23.60;99.90;;;;;;5026872;28;20115;-75
2023/07/15 08:26:24;;;;;;;6.30;1.70;;;23.70;99.90;;;;;;5023869;28;20037;-74
2023/07/15 08:28:50;;;;;;;3.88;1.50;;;24.00;99.90;;;;;;5030298;28;20055;-75
2023/07/15 08:31:16;;;;;;;3.92;1.40;;;24.30;99.90;;;;;;5027526;28;20033;-74
2023/07/15 08:33:42;;;;;;;4.63;1.75;;;24.40;99.90;;;;;;5028453;28;20049;-75
2023/07/15 08:36:08;;;;;;;6.10;1.83;;;24.30;99.90;;;;;;5045943;28;20052;-74
2023/07/15 08:38:34;;;;;;;7.57;1.60;;;24.30;99.90;;;;;;5007301;28;20045;-75
2023/07/15 08:41:00;;;;;;;7.00;2.28;;;24.30;99.90;;;;;;5030287;28;20048;-75
2023/07/15 08:43:29;;;;;;;4.93;1.70;;;24.50;99.90;;;;;;5006242;28;20053;-75
2023/07/15 08:46:00;;;;;;;8.07;2.05;;;24.50;99.90;;;;;;5023995;28;20033;-74
2023/07/15 08:48:27;;;;;;;4.82;1.70;;;24.50;99.90;;;;;;5042312;28;20074;-74
2023/07/15 08:50:56;;;;;;;7.07;2.00;;;24.60;99.90;;;;;;5028037;28;20861;-74
2023/07/15 08:53:26;;;;;;;4.68;1.80;;;24.80;99.90;;;;;;5020888;28;20041;-75
2023/07/15 08:55:56;;;;;;;5.95;1.55;;;24.90;99.90;;;;;;5021656;28;20033;-74
2023/07/15 08:58:23;;;;;;;5.00;1.77;;;24.80;99.90;;;;;;5027589;28;20098;-74
2023/07/15 09:00:53;;;;;;;7.38;2.25;;;24.60;99.90;;;;;;5045940;28;20068;-73
2023/07/15 09:03:21;;;;;;;;;;;24.40;99.90;;;;;;5026904;28;20044;-74
2023/07/15 09:05:48;;;;;;;5.53;1.63;;;24.50;99.90;;;;;;5028168;28;19921;-73
2023/07/15 09:08:15;;;;;;;3.45;1.95;;;24.70;99.90;;;;;;5044874;28;20041;-73
2023/07/15 09:10:58;;;;;;;6.28;2.08;;;24.90;99.90;;;;;;5017254;28;20046;-72
2023/07/15 09:13:26;;;;;;;;;;;25.10;99.90;;;;;;5025446;28;20073;-73
2023/07/15 09:15:53;;;;;;;7.22;2.42;;;25.40;99.90;;;;;;5040830;28;20568;-71
2023/07/15 09:18:19;;;;;;;3.83;2.00;;;25.70;99.90;;;;;;5010676;28;20032;-72
2023/07/15 09:20:46;;;;;;;4.90;1.95;;;26.00;99.90;;;;;;5041281;28;20045;-72
2023/07/15 09:23:12;;;;;;;6.18;1.80;;;26.30;99.90;;;;;;5048960;28;20035;-72
2023/07/15 09:25:38;;;;;;;4.50;1.70;;;26.40;99.90;;;;;;5029417;28;20045;-72
2023/07/15 09:28:08;;;;;;;3.60;1.83;;;26.50;99.90;;;;;;5025923;28;20041;-72
2023/07/15 09:30:38;;;;;;;6.43;1.83;;;26.40;99.90;;;;;;5044614;28;20106;-73
2023/07/15 09:33:03;;;;;;;5.85;1.70;;;26.50;99.90;;;;;;5045177;28;20131;-73
2023/07/15 09:35:37;;;;;;;4.28;1.73;;;26.70;99.90;;;;;;5023347;28;20120;-72
2023/07/15 09:38:05;;;;;;;5.07;1.70;;;26.50;99.90;;;;;;5042058;28;20040;-72
2023/07/15 09:40:41;;;;;;;4.18;1.50;;;26.40;99.90;;;;;;5046246;28;20080;-70
2023/07/15 09:43:07;;;;;;;5.95;2.25;;;26.40;99.90;;;;;;5026781;28;20068;-71
2023/07/15 09:45:37;;;;;;;6.78;2.00;;;26.40;99.90;;;;;;5046040;28;20315;-71
2023/07/15 09:48:05;;;;;;;5.60;1.92;;;26.40;99.90;;;;;;5042203;28;20191;-70
2023/07/15 09:50:33;;;;;;;5.47;2.65;;;26.30;99.90;;;;;;5025636;28;20047;-71
2023/07/15 09:52:59;;;;;;;4.65;1.77;;;26.30;99.90;;;;;;5025838;28;20044;-71
2023/07/15 09:55:26;;;;;;;5.07;1.55;;;26.20;99.90;;;;;;5023516;28;20060;-72
2023/07/15 09:58:21;;;;;;;5.85;1.60;;;26.30;99.90;;;;;;5045374;28;20037;-71
2023/07/15 10:00:51;;;;;;;5.00;2.05;;;26.50;99.90;;;;;;5034454;28;20054;-71
2023/07/15 10:03:32;;;;;;;4.70;2.10;;;26.40;99.90;;;;;;5027456;28;20037;-72
2023/07/15 10:05:59;;;;;;;4.55;1.60;;;26.40;99.90;;;;;;5033009;28;20057;-71
2023/07/15 10:08:25;;;;;;;4.97;1.98;;;26.20;99.90;;;;;;5008617;28;20049;-72
2023/07/15 10:10:51;;;;;;;5.57;2.08;;;26.20;99.90;;;;;;5022151;28;20673;-72
2023/07/15 10:13:18;;;;;;;3.22;1.70;;;26.00;99.90;;;;;;5017233;28;20041;-71
2023/07/15 10:15:46;;;;;;;3.95;1.70;;;25.90;99.90;;;;;;5006152;28;20048;-71
2023/07/15 10:18:13;;;;;;;5.22;2.00;;;26.00;99.90;;;;;;5006193;28;20133;-71
2023/07/15 10:20:52;;;;;;;5.05;2.00;;;26.00;99.90;;;;;;5006125;28;20053;-71
2023/07/15 10:23:25;;;;;;;7.28;2.30;;;25.80;99.90;;;;;;5023616;28;20091;-71
2023/07/15 10:26:08;;;;;;;3.60;1.63;;;25.60;99.90;;;;;;5010269;28;20416;-71
2023/07/15 10:28:36;;;;;;;4.97;2.00;;;25.50;99.90;;;;;;5023555;28;20049;-71
2023/07/15 10:31:13;;;;;;;4.90;1.90;;;25.70;99.90;;;;;;5006187;28;20045;-70
2023/07/15 10:33:58;;;;;;;4.85;1.90;;;25.90;99.90;;;;;;5012321;28;20042;-71
2023/07/15 10:36:40;;;;;;;6.30;1.75;;;25.90;99.90;;;;;;5010360;28;20041;-71
2023/07/15 10:39:32;;;;;;;2.92;1.48;;;26.00;99.90;;;;;;5023474;28;20060;-71
2023/07/15 10:42:07;;;;;;;4.40;1.95;;;26.20;99.90;;;;;;5032612;28;20560;-71
2023/07/15 10:44:39;;;;;;;4.40;1.90;;;26.30;99.90;;;;;;5030790;28;20072;-71
2023/07/15 10:47:05;;;;;;;3.47;1.63;;;26.40;99.90;;;;;;4991733;28;20048;-80
2023/07/15 10:49:31;;;;;;;3.67;1.60;;;26.60;99.90;;;;;;5025127;28;20045;-71
2023/07/15 10:51:57;;;;;;;4.35;1.50;;;26.80;99.90;;;;;;5028669;28;20044;-71
2023/07/15 10:54:27;;;;;;;6.78;1.65;;;27.00;99.90;;;;;;5024538;28;20041;-71
2023/07/15 10:56:54;;;;;;;4.35;1.52;;;27.00;99.90;;;;;;5000964;28;20065;-70
2023/07/15 10:59:34;;;;;;;4.32;1.42;;;27.10;99.90;;;;;;5003499;28;20049;-70
2023/07/15 11:02:00;;;;;;;5.18;1.50;;;27.40;99.90;;;;;;5018941;28;20045;-70
2023/07/15 11:04:26;;;;;;;6.22;1.75;;;27.50;99.90;;;;;;4990232;28;20029;-72
2023/07/15 11:06:52;;;;;;;4.55;1.40;;;27.40;99.90;;;;;;5027024;28;20040;-71
2023/07/15 11:09:20;;;;;;;3.08;1.52;;;27.20;99.90;;;;;;5024614;28;20044;-71
2023/07/15 11:11:49;;;;;;;3.70;1.30;;;27.20;99.90;;;;;;5037264;28;20614;-72
2023/07/15 11:14:19;;;;;;;2.75;1.23;;;27.20;99.90;;;;;;5021101;28;20044;-71
2023/07/15 11:16:45;;;;;;;3.60;1.50;;;27.10;99.90;;;;;;5039237;28;20123;-72
2023/07/15 11:19:15;;;;;;;3.38;1.60;;;27.20;99.90;;;;;;5009958;28;20148;-73
2023/07/15 11:21:44;;;;;;;3.70;1.30;;;27.20;99.90;;;;;;5042042;28;20132;-74
2023/07/15 11:24:14;;;;;;;4.00;1.40;;;27.10;99.90;;;;;;5022024;28;20072;-72
2023/07/15 11:26:41;;;;;;;5.35;1.90;;;27.20;99.90;;;;;;5022707;28;20049;-72
2023/07/15 11:29:26;;;;;;;2.60;1.25;;;27.30;99.90;;;;;;5028623;28;20103;-71
2023/07/15 11:31:54;;;;;;;2.80;1.20;;;27.40;99.90;;;;;;5026646;28;20037;-73
2023/07/15 11:34:24;;;;;;;3.55;1.55;;;27.60;99.90;;;;;;5021771;28;20051;-71
2023/07/15 11:36:51;;;;;;;3.22;1.35;;;27.50;99.90;;;;;;5022578;28;20048;-71
2023/07/15 11:39:18;;;;;;;3.95;1.50;;;27.40;99.90;;;;;;5040016;28;20091;-73
2023/07/15 11:41:44;;;;;;;4.65;1.60;;;27.20;99.90;;;;;;5002684;28;20044;-74
2023/07/15 11:44:15;;;;;;;4.03;1.40;;;27.20;99.90;;;;;;5035487;28;20104;-71
2023/07/15 11:46:45;;;;;;;3.03;1.55;;;27.10;99.90;;;;;;5026475;28;20124;-72
2023/07/15 11:49:12;;;;;;;9.70;2.13;;;27.20;99.90;;;;;;5037359;28;20044;-69
2023/07/15 11:51:42;;;;;;;3.97;1.70;;;27.20;99.90;;;;;;5041077;28;20067;-71
2023/07/15 11:54:09;;;;;;;3.15;1.40;;;27.00;99.90;;;;;;5022282;28;20071;-71
2023/07/15 11:56:46;;;;;;;5.03;1.55;;;26.70;99.90;;;;;;5016588;28;20397;-70
2023/07/15 11:59:32;;;;;;;4.57;1.67;;;26.60;99.90;;;;;;5019898;28;20148;-71
2023/07/15 12:02:01;;;;;;;4.63;1.75;;;26.40;99.90;;;;;;5020766;28;20049;-80
2023/07/15 12:04:31;;;;;;;3.15;1.75;;;26.40;99.90;;;;;;5024929;28;20203;-71
2023/07/15 12:07:02;;;;;;;5.07;1.92;;;26.40;99.90;;;;;;5043771;28;20045;-73
2023/07/15 12:09:27;;;;;;;3.08;1.60;;;26.20;99.90;;;;;;5045083;28;20041;-77
2023/07/15 12:11:53;;;;;;;4.25;1.83;;;26.10;99.90;;;;;;5024275;28;20041;-72
2023/07/15 12:14:19;;;;;;;3.72;1.60;;;26.00;99.90;;;;;;5044637;28;20037;-69
2023/07/15 12:16:45;;;;;;;3.55;1.92;;;26.00;99.90;;;;;;5024929;28;20075;-71
2023/07/15 12:19:17;;;;;;;4.07;1.90;;;26.00;99.90;;;;;;5029537;28;20076;-70
2023/07/15 12:21:43;;;;;;;4.22;1.77;;;26.00;99.90;;;;;;5039099;28;20078;-70
2023/07/15 12:24:08;;;;;;;4.22;1.88;;;25.90;99.90;;;;;;5041062;28;20044;-70
2023/07/15 12:26:35;;;;;;;5.10;1.60;;;25.80;99.90;;;;;;5040200;28;20073;-70
2023/07/15 12:29:00;;;;;;;3.42;1.63;;;25.80;99.90;;;;;;5027702;28;20404;-70
2023/07/15 12:31:26;;;;;;;3.30;1.50;;;25.90;99.90;;;;;;5025700;28;20045;-69
2023/07/15 12:33:52;;;;;;;4.22;1.63;;;26.00;99.90;;;;;;5016916;28;20060;-72
2023/07/15 12:36:18;;;;;;;6.60;2.45;;;26.10;99.90;;;;;;5025312;28;20045;-72
2023/07/15 12:38:44;;;;;;;3.13;1.52;;;26.10;99.90;;;;;;5035128;28;21788;-74
2023/07/15 12:41:11;;;;;;;4.03;1.90;;;26.00;99.90;;;;;;5038689;28;20075;-71
2023/07/15 12:43:38;;;;;;;4.93;2.08;;;25.90;99.90;;;;;;5040003;28;20056;-69
2023/07/15 12:46:04;;;;;;;5.25;1.80;;;25.70;99.90;;;;;;5041561;28;20045;-71
2023/07/15 12:48:30;;;;;;;3.65;1.65;;;25.50;99.90;;;;;;5025961;28;20072;-69